sensor_id;sensor_type;location;lat;lon;timestamp;pressure;altitude;pressure_sealevel;temperature;humidity
50790;BME280;37287;47.554;7.844;2023-05-21T00:00:31;97400.78;;;13.05;100.00
50790;BME280;37287;47.554;7.844;2023-05-21T00:02:57;97404.00;;;12.93;100.00
50790;BME280;37287;47.554;7.844;2023-05-21T00:05:25;97398.97;;;12.91;100.00
50790;BME280;37287;47.554;7.844;2023-05-21T00:07:58;97403.59;;;12.90;100.00
50790;BME280;37287;47.554;7.844;2023-05-21T00:10:24;97405.97;;;12.88;100.00
50790;BME280;37287;47.554;7.844;2023-05-21T00:12:51;97400.53;;;12.88;100.00
50790;BME280;37287;47.554;7.844;2023-05-21T00:15:20;97403.69;;;12.83;100.00
50790;BME280;37287;47.554;7.844;2023-05-21T00:17:49;97401.41;;;12.78;100.00
50790;BME280;37287;47.554;7.844;2023-05-21T00:20:16;97400.22;;;12.79;100.00
50790;BME280;37287;47.554;7.844;2023-05-21T00:22:43;97395.91;;;12.85;100.00
50790;BME280;37287;47.554;7.844;2023-05-21T00:25:10;97385.78;;;12.89;100.00
50790;BME280;37287;47.554;7.844;2023-05-21T00:27:40;97393.13;;;12.93;100.00
50790;BME280;37287;47.554;7.844;2023-05-21T00:30:13;97389.94;;;13.01;100.00
50790;BME280;37287;47.554;7.844;2023-05-21T00:32:39;97388.78;;;12.99;100.00
50790;BME280;37287;47.554;7.844;2023-05-21T00:35:06;97390.34;;;13.00;100.00
50790;BME280;37287;47.554;7.844;2023-05-21T00:37:35;97389.94;;;12.98;100.00
50790;BME280;37287;47.554;7.844;2023-05-21T00:40:02;97381.09;;;12.94;100.00
50790;BME280;37287;47.554;7.844;2023-05-21T00:42:32;97383.81;;;12.94;100.00
50790;BME280;37287;47.554;7.844;2023-05-21T00:44:59;97381.09;;;12.94;100.00
50790;BME280;37287;47.554;7.844;2023-05-21T00:47:26;97388.44;;;12.93;100.00
50790;BME280;37287;47.554;7.844;2023-05-21T00:49:55;97382.66;;;12.91;100.00
50790;BME280;37287;47.554;7.844;2023-05-21T00:52:22;97388.84;;;12.92;100.00
50790;BME280;37287;47.554;7.844;2023-05-21T00:54:52;97391.28;;;12.82;100.00
50790;BME280;37287;47.554;7.844;2023-05-21T00:57:21;97390.53;;;12.78;100.00
50790;BME280;37287;47.554;7.844;2023-05-21T00:59:50;97394.00;;;12.82;100.00
50790;BME280;37287;47.554;7.844;2023-05-21T01:02:17;97391.63;;;12.84;100.00
50790;BME280;37287;47.554;7.844;2023-05-21T01:04:46;97392.78;;;12.87;100.00
50790;BME280;37287;47.554;7.844;2023-05-21T01:07:28;97392.00;;;12.86;100.00
50790;BME280;37287;47.554;7.844;2023-05-21T01:09:54;97387.75;;;12.85;100.00
50790;BME280;37287;47.554;7.844;2023-05-21T01:12:22;97387.44;;;12.80;100.00
50790;BME280;37287;47.554;7.844;2023-05-21T01:14:49;97389.72;;;12.81;100.00
50790;BME280;37287;47.554;7.844;2023-05-21T01:17:18;97383.91;;;12.79;100.00
50790;BME280;37287;47.554;7.844;2023-05-21T01:19:51;97383.97;;;12.76;100.00
50790;BME280;37287;47.554;7.844;2023-05-21T01:22:20;97383.22;;;12.71;100.00
50790;BME280;37287;47.554;7.844;2023-05-21T01:24:48;97376.59;;;12.76;100.00
50790;BME280;37287;47.554;7.844;2023-05-21T01:27:15;97373.91;;;12.72;100.00
50790;BME280;37287;47.554;7.844;2023-05-21T01:29:43;97377.81;;;12.68;100.00
50790;BME280;37287;47.554;7.844;2023-05-21T01:34:47;97370.13;;;12.63;100.00
50790;BME280;37287;47.554;7.844;2023-05-21T01:37:21;97365.03;;;12.65;100.00
50790;BME280;37287;47.554;7.844;2023-05-21T01:39:56;97365.84;;;12.62;100.00
50790;BME280;37287;47.554;7.844;2023-05-21T01:42:24;97366.34;;;12.49;100.00
50790;BME280;37287;47.554;7.844;2023-05-21T01:44:54;97372.16;;;12.48;100.00
50790;BME280;37287;47.554;7.844;2023-05-21T01:47:26;97369.09;;;12.46;100.00
50790;BME280;37287;47.554;7.844;2023-05-21T01:49:58;97363.25;;;12.47;100.00
50790;BME280;37287;47.554;7.844;2023-05-21T01:52:26;97360.53;;;12.47;100.00
50790;BME280;37287;47.554;7.844;2023-05-21T01:54:55;97358.97;;;12.50;100.00
50790;BME280;37287;47.554;7.844;2023-05-21T01:57:22;97358.94;;;12.53;100.00
50790;BME280;37287;47.554;7.844;2023-05-21T01:59:49;97358.91;;;12.57;100.00
50790;BME280;37287;47.554;7.844;2023-05-21T02:02:19;97349.91;;;12.64;100.00
50790;BME280;37287;47.554;7.844;2023-05-21T02:04:46;97352.19;;;12.69;100.00
50790;BME280;37287;47.554;7.844;2023-05-21T02:07:13;97349.84;;;12.71;100.00
50790;BME280;37287;47.554;7.844;2023-05-21T02:09:43;97345.97;;;12.72;100.00
50790;BME280;37287;47.554;7.844;2023-05-21T02:12:10;97358.41;;;12.69;100.00
50790;BME280;37287;47.554;7.844;2023-05-21T02:14:38;97351.47;;;12.65;100.00
50790;BME280;37287;47.554;7.844;2023-05-21T02:17:06;97353.06;;;12.59;100.00
50790;BME280;37287;47.554;7.844;2023-05-21T02:19:33;97348.47;;;12.55;100.00
50790;BME280;37287;47.554;7.844;2023-05-21T02:22:02;97350.38;;;12.55;100.00
50790;BME280;37287;47.554;7.844;2023-05-21T02:24:33;97348.81;;;12.58;100.00
50790;BME280;37287;47.554;7.844;2023-05-21T02:26:59;97347.66;;;12.59;100.00
50790;BME280;37287;47.554;7.844;2023-05-21T02:29:29;97344.94;;;12.59;100.00
50790;BME280;37287;47.554;7.844;2023-05-21T02:32:02;97341.88;;;12.53;100.00
50790;BME280;37287;47.554;7.844;2023-05-21T02:34:28;97347.72;;;12.48;100.00
50790;BME280;37287;47.554;7.844;2023-05-21T02:36:59;97340.34;;;12.48;100.00
50790;BME280;37287;47.554;7.844;2023-05-21T02:39:32;97341.19;;;12.42;100.00
50790;BME280;37287;47.554;7.844;2023-05-21T02:41:58;97340.09;;;12.32;100.00
50790;BME280;37287;47.554;7.844;2023-05-21T02:44:25;97349.88;;;12.22;100.00
50790;BME280;37287;47.554;7.844;2023-05-21T02:46:51;97347.16;;;12.22;100.00
50790;BME280;37287;47.554;7.844;2023-05-21T02:49:18;97342.94;;;12.17;100.00
50790;BME280;37287;47.554;7.844;2023-05-21T02:51:45;97340.63;;;12.12;100.00
50790;BME280;37287;47.554;7.844;2023-05-21T02:54:13;97345.72;;;12.03;100.00
50790;BME280;37287;47.554;7.844;2023-05-21T02:56:40;97346.94;;;11.98;100.00
50790;BME280;37287;47.554;7.844;2023-05-21T02:59:07;97351.97;;;11.93;100.00
50790;BME280;37287;47.554;7.844;2023-05-21T03:01:34;97347.72;;;11.95;100.00
50790;BME280;37287;47.554;7.844;2023-05-21T03:04:01;97353.13;;;11.99;100.00
50790;BME280;37287;47.554;7.844;2023-05-21T03:06:27;97363.22;;;11.91;100.00
50790;BME280;37287;47.554;7.844;2023-05-21T03:08:54;97364.41;;;11.86;100.00
50790;BME280;37287;47.554;7.844;2023-05-21T03:11:21;97363.22;;;11.91;100.00
50790;BME280;37287;47.554;7.844;2023-05-21T03:13:48;97359.00;;;11.86;100.00
50790;BME280;37287;47.554;7.844;2023-05-21T03:16:16;97364.03;;;11.84;100.00
50790;BME280;37287;47.554;7.844;2023-05-21T03:18:43;97361.75;;;11.76;100.00
50790;BME280;37287;47.554;7.844;2023-05-21T03:21:10;97360.63;;;11.69;100.00
50790;BME280;37287;47.554;7.844;2023-05-21T03:23:40;97364.50;;;11.72;100.00
50790;BME280;37287;47.554;7.844;2023-05-21T03:26:07;97364.88;;;11.74;100.00
50790;BME280;37287;47.554;7.844;2023-05-21T03:28:34;97358.66;;;11.77;100.00
50790;BME280;37287;47.554;7.844;2023-05-21T03:31:01;97364.09;;;11.74;100.00
50790;BME280;37287;47.554;7.844;2023-05-21T03:33:28;97369.59;;;11.56;100.00
50790;BME280;37287;47.554;7.844;2023-05-21T03:35:54;97367.28;;;11.50;100.00
50790;BME280;37287;47.554;7.844;2023-05-21T03:38:21;97372.38;;;11.41;100.00
50790;BME280;37287;47.554;7.844;2023-05-21T03:40:48;97367.34;;;11.40;100.00
50790;BME280;37287;47.554;7.844;2023-05-21T03:43:16;97361.88;;;11.50;100.00
50790;BME280;37287;47.554;7.844;2023-05-21T03:45:54;97368.00;;;11.62;100.00
50790;BME280;37287;47.554;7.844;2023-05-21T03:48:21;97369.59;;;11.56;100.00
50790;BME280;37287;47.554;7.844;2023-05-21T03:50:48;97379.75;;;11.37;100.00
50790;BME280;37287;47.554;7.844;2023-05-21T03:53:16;97374.75;;;11.21;100.00
50790;BME280;37287;47.554;7.844;2023-05-21T03:55:43;97381.34;;;11.16;100.00
50790;BME280;37287;47.554;7.844;2023-05-21T03:58:10;97386.41;;;11.14;100.00
50790;BME280;37287;47.554;7.844;2023-05-21T04:00:38;97387.19;;;11.11;100.00
50790;BME280;37287;47.554;7.844;2023-05-21T04:03:05;97389.91;;;11.11;100.00
50790;BME280;37287;47.554;7.844;2023-05-21T04:05:32;97392.56;;;11.15;100.00
50790;BME280;37287;47.554;7.844;2023-05-21T04:08:01;97395.31;;;11.11;100.00
50790;BME280;37287;47.554;7.844;2023-05-21T04:10:30;97389.09;;;11.14;100.00
50790;BME280;37287;47.554;7.844;2023-05-21T04:12:57;97395.28;;;11.18;100.00
50790;BME280;37287;47.554;7.844;2023-05-21T04:15:23;97399.91;;;11.22;100.00
50790;BME280;37287;47.554;7.844;2023-05-21T04:17:50;97404.94;;;11.23;100.00
50790;BME280;37287;47.554;7.844;2023-05-21T04:20:19;97415.38;;;11.32;100.00
50790;BME280;37287;47.554;7.844;2023-05-21T04:22:56;97409.56;;;11.37;100.00
50790;BME280;37287;47.554;7.844;2023-05-21T04:25:22;97417.69;;;11.37;100.00
50790;BME280;37287;47.554;7.844;2023-05-21T04:27:50;97413.44;;;11.29;100.00
50790;BME280;37287;47.554;7.844;2023-05-21T04:30:20;97424.28;;;11.29;100.00
50790;BME280;37287;47.554;7.844;2023-05-21T04:32:49;97420.00;;;11.39;100.00
50790;BME280;37287;47.554;7.844;2023-05-21T04:35:18;97417.63;;;11.51;100.00
50790;BME280;37287;47.554;7.844;2023-05-21T04:37:46;97426.16;;;11.61;100.00
50790;BME280;37287;47.554;7.844;2023-05-21T04:40:37;97432.31;;;11.58;100.00
50790;BME280;37287;47.554;7.844;2023-05-21T04:43:05;97429.22;;;11.63;100.00
50790;BME280;37287;47.554;7.844;2023-05-21T04:45:34;97437.38;;;11.52;100.00
50790;BME280;37287;47.554;7.844;2023-05-21T04:48:01;97433.50;;;11.53;100.00
50790;BME280;37287;47.554;7.844;2023-05-21T04:50:30;97436.59;;;11.59;100.00
50790;BME280;37287;47.554;7.844;2023-05-21T04:52:57;97441.63;;;11.64;100.00
50790;BME280;37287;47.554;7.844;2023-05-21T04:55:24;97441.56;;;11.75;100.00
50790;BME280;37287;47.554;7.844;2023-05-21T04:57:51;97438.44;;;11.80;100.00
50790;BME280;37287;47.554;7.844;2023-05-21T05:00:18;97439.59;;;11.82;100.00
50790;BME280;37287;47.554;7.844;2023-05-21T05:02:47;97435.69;;;11.87;100.00
50790;BME280;37287;47.554;7.844;2023-05-21T05:05:20;97441.50;;;11.93;100.00
50790;BME280;37287;47.554;7.844;2023-05-21T05:07:48;97436.44;;;11.98;100.00
50790;BME280;37287;47.554;7.844;2023-05-21T05:10:16;97437.56;;;12.04;100.00
50790;BME280;37287;47.554;7.844;2023-05-21T05:12:42;97440.28;;;12.08;100.00
50790;BME280;37287;47.554;7.844;2023-05-21T05:15:09;97445.97;;;12.32;100.00
50790;BME280;37287;47.554;7.844;2023-05-21T05:17:36;97428.66;;;12.67;100.00
50790;BME280;37287;47.554;7.844;2023-05-21T05:20:06;97441.97;;;13.00;100.00
50790;BME280;37287;47.554;7.844;2023-05-21T05:22:33;97440.88;;;13.32;100.00
50790;BME280;37287;47.554;7.844;2023-05-21T05:24:59;97439.53;;;13.51;100.00
50790;BME280;37287;47.554;7.844;2023-05-21T05:27:26;97438.97;;;13.67;100.00
50790;BME280;37287;47.554;7.844;2023-05-21T05:29:53;97429.94;;;13.77;100.00
50790;BME280;37287;47.554;7.844;2023-05-21T05:32:19;97428.91;;;13.95;100.00
50790;BME280;37287;47.554;7.844;2023-05-21T05:34:46;97431.41;;;14.13;100.00
50790;BME280;37287;47.554;7.844;2023-05-21T05:37:12;97432.38;;;14.26;100.00
50790;BME280;37287;47.554;7.844;2023-05-21T05:39:39;97430.53;;;14.47;100.00
50790;BME280;37287;47.554;7.844;2023-05-21T05:42:07;97425.53;;;14.69;100.00
50790;BME280;37287;47.554;7.844;2023-05-21T05:44:33;97420.50;;;14.91;100.00
50790;BME280;37287;47.554;7.844;2023-05-21T05:47:00;97427.91;;;15.14;100.00
50790;BME280;37287;47.554;7.844;2023-05-21T05:49:31;97437.22;;;15.37;100.00
50790;BME280;37287;47.554;7.844;2023-05-21T05:51:58;97431.88;;;15.53;100.00
50790;BME280;37287;47.554;7.844;2023-05-21T05:54:24;97430.97;;;15.60;100.00
50790;BME280;37287;47.554;7.844;2023-05-21T05:56:51;97427.38;;;15.63;100.00
50790;BME280;37287;47.554;7.844;2023-05-21T05:59:18;97429.91;;;15.74;100.00
50790;BME280;37287;47.554;7.844;2023-05-21T06:01:44;97424.78;;;15.76;100.00
50790;BME280;37287;47.554;7.844;2023-05-21T06:04:11;97423.03;;;16.06;100.00
50790;BME280;37287;47.554;7.844;2023-05-21T06:06:38;97421.81;;;16.43;100.00
50790;BME280;37287;47.554;7.844;2023-05-21T06:09:05;97428.41;;;16.79;100.00
50790;BME280;37287;47.554;7.844;2023-05-21T06:11:31;97427.81;;;17.04;99.66
50790;BME280;37287;47.554;7.844;2023-05-21T06:13:58;97423.50;;;17.19;98.43
50790;BME280;37287;47.554;7.844;2023-05-21T06:16:28;97433.22;;;17.21;97.78
50790;BME280;37287;47.554;7.844;2023-05-21T06:18:57;97428.69;;;17.30;97.81
50790;BME280;37287;47.554;7.844;2023-05-21T06:21:25;97424.34;;;17.46;97.72
50790;BME280;37287;47.554;7.844;2023-05-21T06:23:55;97416.69;;;17.41;96.79
50790;BME280;37287;47.554;7.844;2023-05-21T06:26:28;97428.00;;;17.26;97.00
50790;BME280;37287;47.554;7.844;2023-05-21T06:28:54;97420.03;;;17.02;97.33
50790;BME280;37287;47.554;7.844;2023-05-21T06:31:21;97423.44;;;16.74;99.05
50790;BME280;37287;47.554;7.844;2023-05-21T06:33:48;97429.09;;;16.50;100.00
50790;BME280;37287;47.554;7.844;2023-05-21T06:36:15;97423.75;;;16.26;100.00
50790;BME280;37287;47.554;7.844;2023-05-21T06:38:42;97422.56;;;16.27;100.00
50790;BME280;37287;47.554;7.844;2023-05-21T06:41:09;97427.94;;;16.31;100.00
50790;BME280;37287;47.554;7.844;2023-05-21T06:43:36;97423.75;;;16.43;100.00
50790;BME280;37287;47.554;7.844;2023-05-21T06:46:02;97422.16;;;16.45;100.00
50790;BME280;37287;47.554;7.844;2023-05-21T06:48:31;97431.38;;;16.68;100.00
50790;BME280;37287;47.554;7.844;2023-05-21T06:50:57;97419.75;;;16.80;99.51
50790;BME280;37287;47.554;7.844;2023-05-21T06:53:24;97429.84;;;16.83;99.81
50790;BME280;37287;47.554;7.844;2023-05-21T06:55:52;97426.09;;;16.77;98.85
50790;BME280;37287;47.554;7.844;2023-05-21T06:58:19;97429.69;;;16.74;99.49
50790;BME280;37287;47.554;7.844;2023-05-21T07:00:48;97430.88;;;16.73;100.00
50790;BME280;37287;47.554;7.844;2023-05-21T07:03:24;97440.38;;;16.68;99.10
50790;BME280;37287;47.554;7.844;2023-05-21T07:05:51;97436.78;;;16.72;100.00
50790;BME280;37287;47.554;7.844;2023-05-21T07:08:18;97443.50;;;16.83;99.98
50790;BME280;37287;47.554;7.844;2023-05-21T07:10:48;97435.75;;;16.98;98.97
50790;BME280;37287;47.554;7.844;2023-05-21T07:13:15;97448.13;;;17.03;97.05
50790;BME280;37287;47.554;7.844;2023-05-21T07:15:43;97444.41;;;17.26;97.50
50790;BME280;37287;47.554;7.844;2023-05-21T07:18:19;97449.78;;;17.46;95.22
50790;BME280;37287;47.554;7.844;2023-05-21T07:20:45;97443.19;;;17.44;95.51
50790;BME280;37287;47.554;7.844;2023-05-21T07:23:12;97450.53;;;17.76;94.55
50790;BME280;37287;47.554;7.844;2023-05-21T07:25:40;97446.53;;;17.94;93.84
50790;BME280;37287;47.554;7.844;2023-05-21T07:28:07;97448.88;;;18.34;92.28
50790;BME280;37287;47.554;7.844;2023-05-21T07:30:34;97448.09;;;18.85;90.09
50790;BME280;37287;47.554;7.844;2023-05-21T07:33:00;97443.91;;;19.06;88.39
50790;BME280;37287;47.554;7.844;2023-05-21T07:35:27;97447.06;;;19.39;86.83
50790;BME280;37287;47.554;7.844;2023-05-21T07:37:54;97441.41;;;19.56;86.15
50790;BME280;37287;47.554;7.844;2023-05-21T07:40:25;97440.13;;;19.70;86.10
50790;BME280;37287;47.554;7.844;2023-05-21T07:42:51;97434.50;;;19.73;86.86
50790;BME280;37287;47.554;7.844;2023-05-21T07:45:18;97429.47;;;19.72;87.20
50790;BME280;37287;47.554;7.844;2023-05-21T07:47:45;97430.13;;;20.07;86.06
50790;BME280;37287;47.554;7.844;2023-05-21T07:50:14;97434.09;;;20.38;85.22
50790;BME280;37287;47.554;7.844;2023-05-21T07:52:43;97429.81;;;20.77;82.85
50790;BME280;37287;47.554;7.844;2023-05-21T07:55:11;97431.69;;;20.90;81.88
50790;BME280;37287;47.554;7.844;2023-05-21T07:57:38;97433.69;;;20.99;81.29
50790;BME280;37287;47.554;7.844;2023-05-21T08:00:05;97439.66;;;21.25;81.73
50790;BME280;37287;47.554;7.844;2023-05-21T08:02:35;97426.81;;;21.12;81.73
50790;BME280;37287;47.554;7.844;2023-05-21T08:05:02;97430.66;;;21.34;79.73
50790;BME280;37287;47.554;7.844;2023-05-21T08:07:31;97437.66;;;21.07;80.76
50790;BME280;37287;47.554;7.844;2023-05-21T08:10:02;97430.59;;;20.96;81.86
50790;BME280;37287;47.554;7.844;2023-05-21T08:12:29;97426.66;;;21.35;81.02
50790;BME280;37287;47.554;7.844;2023-05-21T08:14:56;97427.44;;;21.63;78.78
50790;BME280;37287;47.554;7.844;2023-05-21T08:17:23;97426.19;;;21.18;80.66
50790;BME280;37287;47.554;7.844;2023-05-21T08:19:50;97428.38;;;21.32;80.13
50790;BME280;37287;47.554;7.844;2023-05-21T08:22:17;97422.53;;;21.39;79.70
50790;BME280;37287;47.554;7.844;2023-05-21T08:24:45;97422.69;;;21.45;79.31
50790;BME280;37287;47.554;7.844;2023-05-21T08:27:12;97424.22;;;21.37;80.22
50790;BME280;37287;47.554;7.844;2023-05-21T08:29:40;97422.00;;;22.06;76.24
50790;BME280;37287;47.554;7.844;2023-05-21T08:32:09;97424.50;;;21.85;77.71
50790;BME280;37287;47.554;7.844;2023-05-21T08:34:37;97418.22;;;21.47;78.58
50790;BME280;37287;47.554;7.844;2023-05-21T08:37:04;97413.50;;;21.48;78.90
50790;BME280;37287;47.554;7.844;2023-05-21T08:39:31;97416.44;;;21.35;78.58
50790;BME280;37287;47.554;7.844;2023-05-21T08:42:03;97413.97;;;21.28;77.88
50790;BME280;37287;47.554;7.844;2023-05-21T08:44:40;97414.25;;;21.02;79.34
50790;BME280;37287;47.554;7.844;2023-05-21T08:47:11;97413.03;;;20.85;79.84
50790;BME280;37287;47.554;7.844;2023-05-21T08:49:43;97417.63;;;20.97;79.56
50790;BME280;37287;47.554;7.844;2023-05-21T08:52:12;97415.81;;;21.31;78.06
50790;BME280;37287;47.554;7.844;2023-05-21T08:54:41;97409.34;;;21.80;75.12
50790;BME280;37287;47.554;7.844;2023-05-21T08:57:12;97414.81;;;21.90;74.56
50790;BME280;37287;47.554;7.844;2023-05-21T08:59:40;97410.69;;;21.94;73.48
50790;BME280;37287;47.554;7.844;2023-05-21T09:02:12;97411.72;;;22.06;74.30
50790;BME280;37287;47.554;7.844;2023-05-21T09:04:42;97411.31;;;22.41;71.87
50790;BME280;37287;47.554;7.844;2023-05-21T09:07:15;97417.72;;;22.47;72.62
50790;BME280;37287;47.554;7.844;2023-05-21T09:09:48;97419.00;;;22.28;71.46
50790;BME280;37287;47.554;7.844;2023-05-21T09:12:28;97417.16;;;21.73;74.77
50790;BME280;37287;47.554;7.844;2023-05-21T09:14:58;97411.03;;;21.69;74.15
50790;BME280;37287;47.554;7.844;2023-05-21T09:17:25;97417.78;;;21.49;75.01
50790;BME280;37287;47.554;7.844;2023-05-21T09:22:44;97407.38;;;21.16;75.14
50790;BME280;37287;47.554;7.844;2023-05-21T09:25:15;97412.56;;;20.77;76.31
50790;BME280;37287;47.554;7.844;2023-05-21T09:27:43;97409.44;;;20.66;76.92
50790;BME280;37287;47.554;7.844;2023-05-21T09:30:12;97409.22;;;20.91;75.51
50790;BME280;37287;47.554;7.844;2023-05-21T09:32:44;97400.47;;;20.74;75.36
50790;BME280;37287;47.554;7.844;2023-05-21T09:35:13;97401.41;;;20.40;77.17
50790;BME280;37287;47.554;7.844;2023-05-21T09:37:43;97407.81;;;20.27;77.46
50790;BME280;37287;47.554;7.844;2023-05-21T09:40:13;97404.34;;;20.45;76.83
50790;BME280;37287;47.554;7.844;2023-05-21T09:42:45;97403.88;;;20.38;76.37
50790;BME280;37287;47.554;7.844;2023-05-21T09:45:17;97401.03;;;20.19;76.85
50790;BME280;37287;47.554;7.844;2023-05-21T09:47:44;97401.97;;;20.16;77.60
50790;BME280;37287;47.554;7.844;2023-05-21T09:50:34;97401.72;;;20.01;76.85
50790;BME280;37287;47.554;7.844;2023-05-21T09:53:10;97396.34;;;19.98;78.08
50790;BME280;37287;47.554;7.844;2023-05-21T09:55:38;97399.97;;;20.26;77.42
50790;BME280;37287;47.554;7.844;2023-05-21T09:58:07;97396.53;;;20.35;76.99
50790;BME280;37287;47.554;7.844;2023-05-21T10:00:36;97397.59;;;20.37;76.91
50790;BME280;37287;47.554;7.844;2023-05-21T10:03:08;97383.53;;;20.35;76.47
50790;BME280;37287;47.554;7.844;2023-05-21T10:05:36;97382.78;;;20.35;76.53
50790;BME280;37287;47.554;7.844;2023-05-21T10:08:03;97393.44;;;20.23;77.54
50790;BME280;37287;47.554;7.844;2023-05-21T10:10:30;97391.50;;;20.42;77.18
50790;BME280;37287;47.554;7.844;2023-05-21T10:13:07;97383.63;;;20.63;76.44
50790;BME280;37287;47.554;7.844;2023-05-21T10:15:43;97391.00;;;20.85;75.19
50790;BME280;37287;47.554;7.844;2023-05-21T10:18:12;97387.03;;;21.51;74.46
50790;BME280;37287;47.554;7.844;2023-05-21T10:20:39;97387.25;;;21.99;72.18
50790;BME280;37287;47.554;7.844;2023-05-21T10:23:06;97391.00;;;22.20;72.01
50790;BME280;37287;47.554;7.844;2023-05-21T10:25:35;97380.03;;;22.44;71.37
50790;BME280;37287;47.554;7.844;2023-05-21T10:28:03;97385.84;;;22.46;71.67
50790;BME280;37287;47.554;7.844;2023-05-21T10:30:33;97388.53;;;23.04;69.45
50790;BME280;37287;47.554;7.844;2023-05-21T10:33:04;97385.69;;;23.52;66.90
50790;BME280;37287;47.554;7.844;2023-05-21T10:35:32;97374.88;;;23.94;66.13
50790;BME280;37287;47.554;7.844;2023-05-21T10:38:03;97381.75;;;24.34;64.37
50790;BME280;37287;47.554;7.844;2023-05-21T10:40:31;97376.78;;;24.74;62.56
50790;BME280;37287;47.554;7.844;2023-05-21T10:43:20;97374.16;;;25.05;58.05
50790;BME280;37287;47.554;7.844;2023-05-21T10:46:13;97374.56;;;24.78;56.85
50790;BME280;37287;47.554;7.844;2023-05-21T10:49:04;97368.25;;;24.98;58.15
50790;BME280;37287;47.554;7.844;2023-05-21T10:51:47;97363.28;;;25.02;60.59
50790;BME280;37287;47.554;7.844;2023-05-21T10:54:50;97362.16;;;24.94;57.28
50790;BME280;37287;47.554;7.844;2023-05-21T10:59:59;97362.72;;;25.18;60.17
50790;BME280;37287;47.554;7.844;2023-05-21T11:02:27;97360.47;;;25.22;60.09
50790;BME280;37287;47.554;7.844;2023-05-21T11:04:58;97359.38;;;25.14;59.34
50790;BME280;37287;47.554;7.844;2023-05-21T11:07:50;97361.97;;;24.97;57.10
50790;BME280;37287;47.554;7.844;2023-05-21T11:10:37;97361.22;;;25.23;57.35
50790;BME280;37287;47.554;7.844;2023-05-21T11:21:09;97358.53;;;25.29;58.42
50790;BME280;37287;47.554;7.844;2023-05-21T11:23:53;97345.31;;;25.38;55.45
50790;BME280;37287;47.554;7.844;2023-05-21T11:26:23;97350.94;;;25.50;58.53
50790;BME280;37287;47.554;7.844;2023-05-21T11:31:32;97355.25;;;25.51;58.02
50790;BME280;37287;47.554;7.844;2023-05-21T11:36:47;97348.13;;;25.70;57.47
50790;BME280;37287;47.554;7.844;2023-05-21T11:39:17;97344.59;;;26.02;55.76
50790;BME280;37287;47.554;7.844;2023-05-21T11:44:41;97342.97;;;25.89;54.19
50790;BME280;37287;47.554;7.844;2023-05-21T11:47:13;97342.75;;;26.31;56.09
50790;BME280;37287;47.554;7.844;2023-05-21T11:49:43;97333.41;;;26.28;55.00
50790;BME280;37287;47.554;7.844;2023-05-21T11:52:10;97331.41;;;25.97;56.51
50790;BME280;37287;47.554;7.844;2023-05-21T11:54:47;97340.19;;;25.89;52.58
50790;BME280;37287;47.554;7.844;2023-05-21T11:57:17;97330.91;;;25.98;56.76
50790;BME280;37287;47.554;7.844;2023-05-21T11:59:45;97331.16;;;25.95;57.02
50790;BME280;37287;47.554;7.844;2023-05-21T12:02:16;97330.84;;;26.19;55.23
50790;BME280;37287;47.554;7.844;2023-05-21T12:04:46;97333.69;;;26.30;55.32
50790;BME280;37287;47.554;7.844;2023-05-21T12:07:17;97326.50;;;26.55;54.80
50790;BME280;37287;47.554;7.844;2023-05-21T12:09:50;97321.78;;;26.73;52.53
50790;BME280;37287;47.554;7.844;2023-05-21T12:12:23;97329.63;;;26.80;52.52
50790;BME280;37287;47.554;7.844;2023-05-21T12:14:51;97323.53;;;26.70;51.93
50790;BME280;37287;47.554;7.844;2023-05-21T12:17:20;97323.88;;;26.40;53.54
50790;BME280;37287;47.554;7.844;2023-05-21T12:19:53;97317.88;;;26.48;50.45
50790;BME280;37287;47.554;7.844;2023-05-21T12:22:21;97314.84;;;26.46;53.08
50790;BME280;37287;47.554;7.844;2023-05-21T12:24:49;97314.47;;;26.70;53.00
50790;BME280;37287;47.554;7.844;2023-05-21T12:27:16;97321.06;;;26.78;52.92
50790;BME280;37287;47.554;7.844;2023-05-21T12:29:45;97319.28;;;26.86;52.75
50790;BME280;37287;47.554;7.844;2023-05-21T12:32:13;97322.47;;;26.62;53.22
50790;BME280;37287;47.554;7.844;2023-05-21T12:34:48;97311.53;;;27.02;52.10
50790;BME280;37287;47.554;7.844;2023-05-21T12:37:23;97312.88;;;27.35;51.40
50790;BME280;37287;47.554;7.844;2023-05-21T12:39:57;97318.19;;;27.44;48.79
50790;BME280;37287;47.554;7.844;2023-05-21T12:42:28;97323.00;;;27.49;49.23
50790;BME280;37287;47.554;7.844;2023-05-21T12:44:57;97320.97;;;27.55;49.60
50790;BME280;37287;47.554;7.844;2023-05-21T12:47:26;97325.53;;;27.70;49.16
50790;BME280;37287;47.554;7.844;2023-05-21T12:49:55;97330.59;;;27.66;49.32
50790;BME280;37287;47.554;7.844;2023-05-21T12:52:25;97337.66;;;27.55;49.00
50790;BME280;37287;47.554;7.844;2023-05-21T12:54:56;97342.19;;;27.36;49.08
50790;BME280;37287;47.554;7.844;2023-05-21T12:57:37;97337.94;;;27.57;45.85
50790;BME280;37287;47.554;7.844;2023-05-21T13:00:05;97337.91;;;27.40;43.38
50790;BME280;37287;47.554;7.844;2023-05-21T13:02:41;97331.53;;;27.23;46.98
50790;BME280;37287;47.554;7.844;2023-05-21T13:05:10;97328.56;;;27.38;48.89
50790;BME280;37287;47.554;7.844;2023-05-21T13:07:41;97330.53;;;27.32;48.68
50790;BME280;37287;47.554;7.844;2023-05-21T13:10:12;97322.66;;;27.13;47.57
50790;BME280;37287;47.554;7.844;2023-05-21T13:12:50;97315.38;;;27.33;48.46
50790;BME280;37287;47.554;7.844;2023-05-21T13:15:19;97322.97;;;27.32;48.51
50790;BME280;37287;47.554;7.844;2023-05-21T13:17:46;97314.81;;;27.06;49.44
50790;BME280;37287;47.554;7.844;2023-05-21T13:20:23;97318.59;;;27.03;50.75
50790;BME280;37287;47.554;7.844;2023-05-21T13:22:53;97316.31;;;26.96;50.74
50790;BME280;37287;47.554;7.844;2023-05-21T13:25:22;97310.81;;;27.18;49.48
50790;BME280;37287;47.554;7.844;2023-05-21T13:27:51;97316.16;;;27.33;49.06
50790;BME280;37287;47.554;7.844;2023-05-21T13:30:18;97314.13;;;27.34;49.52